sensor_id;sensor_type;location;lat;lon;timestamp;P1;durP1;ratioP1;P2;durP2;ratioP2
78508;SDS011;67802;50.846;7.958;2023-04-28T00:01:12;3.65;;;1.30;;
78508;SDS011;67802;50.846;7.958;2023-04-28T00:03:37;3.55;;;1.55;;
78508;SDS011;67802;50.846;7.958;2023-04-28T00:06:03;2.67;;;1.30;;
78508;SDS011;67802;50.846;7.958;2023-04-28T00:08:28;3.75;;;1.60;;
78508;SDS011;67802;50.846;7.958;2023-04-28T00:10:54;3.95;;;1.65;;
78508;SDS011;67802;50.846;7.958;2023-04-28T00:13:19;4.60;;;1.60;;
78508;SDS011;67802;50.846;7.958;2023-04-28T00:15:44;3.85;;;1.55;;
78508;SDS011;67802;50.846;7.958;2023-04-28T00:18:10;3.35;;;1.58;;
78508;SDS011;67802;50.846;7.958;2023-04-28T00:20:35;3.30;;;1.38;;
78508;SDS011;67802;50.846;7.958;2023-04-28T00:23:00;3.90;;;1.30;;
78508;SDS011;67802;50.846;7.958;2023-04-28T00:25:26;3.38;;;1.30;;
78508;SDS011;67802;50.846;7.958;2023-04-28T00:27:51;2.88;;;1.30;;
78508;SDS011;67802;50.846;7.958;2023-04-28T00:30:16;3.70;;;1.47;;
78508;SDS011;67802;50.846;7.958;2023-04-28T00:32:42;3.05;;;1.30;;
78508;SDS011;67802;50.846;7.958;2023-04-28T00:35:07;3.70;;;1.40;;
78508;SDS011;67802;50.846;7.958;2023-04-28T00:37:36;2.83;;;1.27;;
78508;SDS011;67802;50.846;7.958;2023-04-28T00:40:02;3.38;;;1.50;;
78508;SDS011;67802;50.846;7.958;2023-04-28T00:42:28;3.85;;;1.33;;
78508;SDS011;67802;50.846;7.958;2023-04-28T00:44:53;4.13;;;1.50;;
78508;SDS011;67802;50.846;7.958;2023-04-28T00:47:18;3.25;;;1.33;;
78508;SDS011;67802;50.846;7.958;2023-04-28T00:49:44;4.07;;;1.63;;
78508;SDS011;67802;50.846;7.958;2023-04-28T00:52:09;3.55;;;1.27;;
78508;SDS011;67802;50.846;7.958;2023-04-28T00:54:35;4.53;;;1.60;;
78508;SDS011;67802;50.846;7.958;2023-04-28T00:57:01;3.88;;;1.50;;
78508;SDS011;67802;50.846;7.958;2023-04-28T00:59:30;4.30;;;1.60;;
78508;SDS011;67802;50.846;7.958;2023-04-28T01:01:56;3.25;;;1.48;;
78508;SDS011;67802;50.846;7.958;2023-04-28T01:04:21;3.50;;;1.48;;
78508;SDS011;67802;50.846;7.958;2023-04-28T01:06:48;3.28;;;1.50;;
78508;SDS011;67802;50.846;7.958;2023-04-28T01:09:15;6.13;;;1.60;;
78508;SDS011;67802;50.846;7.958;2023-04-28T01:11:40;3.80;;;1.67;;
78508;SDS011;67802;50.846;7.958;2023-04-28T01:14:05;3.70;;;1.55;;
78508;SDS011;67802;50.846;7.958;2023-04-28T01:16:31;3.85;;;1.38;;
78508;SDS011;67802;50.846;7.958;2023-04-28T01:18:57;3.60;;;1.80;;
78508;SDS011;67802;50.846;7.958;2023-04-28T01:21:24;3.33;;;1.30;;
78508;SDS011;67802;50.846;7.958;2023-04-28T01:23:56;3.88;;;1.70;;
78508;SDS011;67802;50.846;7.958;2023-04-28T01:26:22;5.47;;;1.70;;
78508;SDS011;67802;50.846;7.958;2023-04-28T01:28:47;4.35;;;1.65;;
78508;SDS011;67802;50.846;7.958;2023-04-28T01:31:12;3.38;;;1.50;;
78508;SDS011;67802;50.846;7.958;2023-04-28T01:33:38;3.35;;;1.48;;
78508;SDS011;67802;50.846;7.958;2023-04-28T01:36:03;4.27;;;1.80;;
78508;SDS011;67802;50.846;7.958;2023-04-28T01:38:29;4.10;;;1.55;;
78508;SDS011;67802;50.846;7.958;2023-04-28T01:40:54;5.00;;;1.70;;
78508;SDS011;67802;50.846;7.958;2023-04-28T01:43:20;3.88;;;1.45;;
78508;SDS011;67802;50.846;7.958;2023-04-28T01:45:45;3.60;;;1.23;;
78508;SDS011;67802;50.846;7.958;2023-04-28T01:48:10;2.93;;;1.30;;
78508;SDS011;67802;50.846;7.958;2023-04-28T01:50:36;3.03;;;1.40;;
78508;SDS011;67802;50.846;7.958;2023-04-28T01:53:01;3.27;;;1.37;;
78508;SDS011;67802;50.846;7.958;2023-04-28T01:55:26;2.30;;;1.13;;
78508;SDS011;67802;50.846;7.958;2023-04-28T01:57:52;3.50;;;1.30;;
78508;SDS011;67802;50.846;7.958;2023-04-28T02:00:17;3.15;;;1.30;;
78508;SDS011;67802;50.846;7.958;2023-04-28T02:02:42;3.88;;;1.60;;
78508;SDS011;67802;50.846;7.958;2023-04-28T02:05:08;4.30;;;1.38;;
78508;SDS011;67802;50.846;7.958;2023-04-28T02:07:33;4.72;;;1.52;;
78508;SDS011;67802;50.846;7.958;2023-04-28T02:09:58;3.67;;;1.50;;
78508;SDS011;67802;50.846;7.958;2023-04-28T02:12:23;4.38;;;1.50;;
78508;SDS011;67802;50.846;7.958;2023-04-28T02:14:49;3.97;;;1.40;;
78508;SDS011;67802;50.846;7.958;2023-04-28T02:17:15;3.97;;;1.50;;
78508;SDS011;67802;50.846;7.958;2023-04-28T02:19:40;3.58;;;1.60;;
78508;SDS011;67802;50.846;7.958;2023-04-28T02:22:06;3.58;;;1.30;;
78508;SDS011;67802;50.846;7.958;2023-04-28T02:24:33;4.20;;;1.50;;
78508;SDS011;67802;50.846;7.958;2023-04-28T02:27:00;4.00;;;1.65;;
78508;SDS011;67802;50.846;7.958;2023-04-28T02:29:25;3.55;;;1.52;;
78508;SDS011;67802;50.846;7.958;2023-04-28T02:31:51;3.67;;;1.40;;
78508;SDS011;67802;50.846;7.958;2023-04-28T02:34:17;2.53;;;1.30;;
78508;SDS011;67802;50.846;7.958;2023-04-28T02:36:42;3.50;;;1.40;;
78508;SDS011;67802;50.846;7.958;2023-04-28T02:39:07;2.90;;;1.38;;
78508;SDS011;67802;50.846;7.958;2023-04-28T02:41:33;3.50;;;1.50;;
78508;SDS011;67802;50.846;7.958;2023-04-28T02:43:58;4.28;;;1.33;;
78508;SDS011;67802;50.846;7.958;2023-04-28T02:46:24;3.30;;;1.50;;
78508;SDS011;67802;50.846;7.958;2023-04-28T02:48:49;2.70;;;1.17;;
78508;SDS011;67802;50.846;7.958;2023-04-28T02:51:15;3.72;;;1.40;;
78508;SDS011;67802;50.846;7.958;2023-04-28T02:53:40;3.03;;;1.25;;
78508;SDS011;67802;50.846;7.958;2023-04-28T02:56:05;3.05;;;1.30;;
78508;SDS011;67802;50.846;7.958;2023-04-28T02:58:31;2.97;;;1.23;;
78508;SDS011;67802;50.846;7.958;2023-04-28T03:00:56;2.53;;;1.20;;
78508;SDS011;67802;50.846;7.958;2023-04-28T03:03:21;3.40;;;1.33;;
78508;SDS011;67802;50.846;7.958;2023-04-28T03:05:47;2.42;;;1.10;;
78508;SDS011;67802;50.846;7.958;2023-04-28T03:08:12;3.00;;;1.23;;
78508;SDS011;67802;50.846;7.958;2023-04-28T03:10:37;2.97;;;1.30;;
78508;SDS011;67802;50.846;7.958;2023-04-28T03:13:03;2.67;;;1.15;;
78508;SDS011;67802;50.846;7.958;2023-04-28T03:15:28;2.95;;;1.40;;
78508;SDS011;67802;50.846;7.958;2023-04-28T03:17:53;5.33;;;1.60;;
78508;SDS011;67802;50.846;7.958;2023-04-28T03:20:18;3.35;;;1.35;;
78508;SDS011;67802;50.846;7.958;2023-04-28T03:22:44;4.28;;;1.40;;
78508;SDS011;67802;50.846;7.958;2023-04-28T03:25:09;2.70;;;1.30;;
78508;SDS011;67802;50.846;7.958;2023-04-28T03:27:35;2.40;;;1.10;;
78508;SDS011;67802;50.846;7.958;2023-04-28T03:30:00;4.32;;;1.60;;
78508;SDS011;67802;50.846;7.958;2023-04-28T03:32:26;3.05;;;1.27;;
78508;SDS011;67802;50.846;7.958;2023-04-28T03:34:51;3.80;;;1.42;;
78508;SDS011;67802;50.846;7.958;2023-04-28T03:37:16;3.55;;;1.30;;
78508;SDS011;67802;50.846;7.958;2023-04-28T03:39:41;3.42;;;1.45;;
78508;SDS011;67802;50.846;7.958;2023-04-28T03:42:07;3.05;;;1.30;;
78508;SDS011;67802;50.846;7.958;2023-04-28T03:44:32;3.70;;;1.30;;
78508;SDS011;67802;50.846;7.958;2023-04-28T03:46:57;3.00;;;1.27;;
78508;SDS011;67802;50.846;7.958;2023-04-28T03:49:23;3.30;;;1.40;;
78508;SDS011;67802;50.846;7.958;2023-04-28T03:51:48;3.67;;;1.50;;
78508;SDS011;67802;50.846;7.958;2023-04-28T03:54:15;3.85;;;1.27;;
78508;SDS011;67802;50.846;7.958;2023-04-28T03:56:40;3.47;;;1.50;;
78508;SDS011;67802;50.846;7.958;2023-04-28T03:59:06;2.72;;;1.20;;
78508;SDS011;67802;50.846;7.958;2023-04-28T04:01:31;3.17;;;1.30;;
78508;SDS011;67802;50.846;7.958;2023-04-28T04:03:57;3.85;;;1.40;;
78508;SDS011;67802;50.846;7.958;2023-04-28T04:06:22;3.72;;;1.50;;
78508;SDS011;67802;50.846;7.958;2023-04-28T04:08:47;2.70;;;1.20;;
78508;SDS011;67802;50.846;7.958;2023-04-28T04:11:13;3.90;;;1.40;;
78508;SDS011;67802;50.846;7.958;2023-04-28T04:13:38;1.92;;;1.05;;
78508;SDS011;67802;50.846;7.958;2023-04-28T04:16:04;3.57;;;1.43;;
78508;SDS011;67802;50.846;7.958;2023-04-28T04:18:29;3.75;;;1.40;;
78508;SDS011;67802;50.846;7.958;2023-04-28T04:20:55;3.10;;;1.27;;
78508;SDS011;67802;50.846;7.958;2023-04-28T04:23:21;4.03;;;1.40;;
78508;SDS011;67802;50.846;7.958;2023-04-28T04:25:47;3.35;;;1.20;;
78508;SDS011;67802;50.846;7.958;2023-04-28T04:28:12;2.80;;;1.33;;
78508;SDS011;67802;50.846;7.958;2023-04-28T04:30:38;3.10;;;1.50;;
78508;SDS011;67802;50.846;7.958;2023-04-28T04:33:03;3.42;;;1.40;;
78508;SDS011;67802;50.846;7.958;2023-04-28T04:35:28;3.22;;;1.20;;
78508;SDS011;67802;50.846;7.958;2023-04-28T04:37:54;5.20;;;1.40;;
78508;SDS011;67802;50.846;7.958;2023-04-28T04:40:20;2.35;;;1.13;;
78508;SDS011;67802;50.846;7.958;2023-04-28T04:42:45;3.72;;;1.38;;
78508;SDS011;67802;50.846;7.958;2023-04-28T04:45:10;2.92;;;1.40;;
78508;SDS011;67802;50.846;7.958;2023-04-28T04:47:36;3.88;;;1.33;;
78508;SDS011;67802;50.846;7.958;2023-04-28T04:50:01;3.60;;;1.30;;
78508;SDS011;67802;50.846;7.958;2023-04-28T04:52:27;4.25;;;1.27;;
78508;SDS011;67802;50.846;7.958;2023-04-28T04:54:53;2.38;;;1.10;;
78508;SDS011;67802;50.846;7.958;2023-04-28T04:57:20;3.33;;;1.35;;
78508;SDS011;67802;50.846;7.958;2023-04-28T04:59:45;4.55;;;1.80;;
78508;SDS011;67802;50.846;7.958;2023-04-28T05:02:10;6.78;;;2.30;;
78508;SDS011;67802;50.846;7.958;2023-04-28T05:04:36;5.43;;;2.33;;
78508;SDS011;67802;50.846;7.958;2023-04-28T05:07:01;8.75;;;1.75;;
78508;SDS011;67802;50.846;7.958;2023-04-28T05:09:26;4.88;;;1.85;;
78508;SDS011;67802;50.846;7.958;2023-04-28T05:11:53;7.28;;;1.88;;
78508;SDS011;67802;50.846;7.958;2023-04-28T05:14:19;4.78;;;1.92;;
78508;SDS011;67802;50.846;7.958;2023-04-28T05:16:44;5.07;;;1.92;;
78508;SDS011;67802;50.846;7.958;2023-04-28T05:19:10;6.28;;;2.38;;
78508;SDS011;67802;50.846;7.958;2023-04-28T05:21:35;4.05;;;1.80;;
78508;SDS011;67802;50.846;7.958;2023-04-28T05:24:00;5.10;;;1.92;;
78508;SDS011;67802;50.846;7.958;2023-04-28T05:26:26;10.70;;;2.30;;
78508;SDS011;67802;50.846;7.958;2023-04-28T05:28:51;7.32;;;2.20;;
78508;SDS011;67802;50.846;7.958;2023-04-28T05:31:16;9.93;;;2.17;;
78508;SDS011;67802;50.846;7.958;2023-04-28T05:33:42;5.57;;;1.98;;
78508;SDS011;67802;50.846;7.958;2023-04-28T05:36:07;4.80;;;2.05;;
78508;SDS011;67802;50.846;7.958;2023-04-28T05:38:33;4.18;;;1.90;;
78508;SDS011;67802;50.846;7.958;2023-04-28T05:40:59;5.05;;;2.00;;
78508;SDS011;67802;50.846;7.958;2023-04-28T05:43:25;5.07;;;1.75;;
78508;SDS011;67802;50.846;7.958;2023-04-28T05:45:50;4.50;;;1.90;;
78508;SDS011;67802;50.846;7.958;2023-04-28T05:48:16;4.38;;;1.98;;
78508;SDS011;67802;50.846;7.958;2023-04-28T05:50:41;4.35;;;1.88;;
78508;SDS011;67802;50.846;7.958;2023-04-28T05:53:06;4.75;;;1.80;;
78508;SDS011;67802;50.846;7.958;2023-04-28T05:55:32;4.40;;;1.70;;
78508;SDS011;67802;50.846;7.958;2023-04-28T05:58:00;5.50;;;2.00;;
78508;SDS011;67802;50.846;7.958;2023-04-28T06:00:25;4.38;;;1.70;;
78508;SDS011;67802;50.846;7.958;2023-04-28T06:02:51;5.50;;;1.85;;
78508;SDS011;67802;50.846;7.958;2023-04-28T06:05:16;4.40;;;1.80;;
78508;SDS011;67802;50.846;7.958;2023-04-28T06:07:42;5.40;;;2.20;;
78508;SDS011;67802;50.846;7.958;2023-04-28T06:10:07;4.32;;;1.80;;
78508;SDS011;67802;50.846;7.958;2023-04-28T06:12:33;7.82;;;1.90;;
78508;SDS011;67802;50.846;7.958;2023-04-28T06:14:58;5.38;;;1.73;;
78508;SDS011;67802;50.846;7.958;2023-04-28T06:17:24;5.10;;;1.95;;
78508;SDS011;67802;50.846;7.958;2023-04-28T06:19:49;5.38;;;1.90;;
78508;SDS011;67802;50.846;7.958;2023-04-28T06:22:17;5.93;;;1.98;;
78508;SDS011;67802;50.846;7.958;2023-04-28T06:24:42;7.00;;;1.93;;
78508;SDS011;67802;50.846;7.958;2023-04-28T06:27:08;6.47;;;1.83;;
78508;SDS011;67802;50.846;7.958;2023-04-28T06:29:33;5.63;;;1.75;;
78508;SDS011;67802;50.846;7.958;2023-04-28T06:31:58;4.60;;;1.87;;
78508;SDS011;67802;50.846;7.958;2023-04-28T06:34:26;6.72;;;1.73;;
78508;SDS011;67802;50.846;7.958;2023-04-28T06:36:53;4.63;;;1.70;;
78508;SDS011;67802;50.846;7.958;2023-04-28T06:39:19;3.90;;;1.58;;
78508;SDS011;67802;50.846;7.958;2023-04-28T06:41:45;4.20;;;1.63;;
78508;SDS011;67802;50.846;7.958;2023-04-28T06:44:11;6.75;;;1.70;;
78508;SDS011;67802;50.846;7.958;2023-04-28T06:46:36;4.43;;;1.80;;
78508;SDS011;67802;50.846;7.958;2023-04-28T06:49:01;4.70;;;1.70;;
78508;SDS011;67802;50.846;7.958;2023-04-28T06:51:27;4.20;;;1.70;;
78508;SDS011;67802;50.846;7.958;2023-04-28T06:53:52;6.07;;;1.75;;
78508;SDS011;67802;50.846;7.958;2023-04-28T06:56:18;5.10;;;1.77;;
78508;SDS011;67802;50.846;7.958;2023-04-28T06:58:44;4.45;;;1.60;;
78508;SDS011;67802;50.846;7.958;2023-04-28T07:01:09;4.50;;;1.63;;
78508;SDS011;67802;50.846;7.958;2023-04-28T07:03:34;5.80;;;1.80;;
78508;SDS011;67802;50.846;7.958;2023-04-28T07:06:00;4.05;;;1.70;;
78508;SDS011;67802;50.846;7.958;2023-04-28T07:08:25;3.65;;;1.55;;
78508;SDS011;67802;50.846;7.958;2023-04-28T07:10:50;4.05;;;1.70;;
78508;SDS011;67802;50.846;7.958;2023-04-28T07:13:16;4.27;;;1.80;;
78508;SDS011;67802;50.846;7.958;2023-04-28T07:15:41;4.88;;;1.70;;
78508;SDS011;67802;50.846;7.958;2023-04-28T07:18:06;3.63;;;1.70;;
78508;SDS011;67802;50.846;7.958;2023-04-28T07:20:32;5.57;;;1.85;;
78508;SDS011;67802;50.846;7.958;2023-04-28T07:22:57;5.35;;;1.70;;
78508;SDS011;67802;50.846;7.958;2023-04-28T07:25:22;5.07;;;1.50;;
78508;SDS011;67802;50.846;7.958;2023-04-28T07:27:48;6.22;;;1.67;;
78508;SDS011;67802;50.846;7.958;2023-04-28T07:30:14;4.93;;;1.50;;
78508;SDS011;67802;50.846;7.958;2023-04-28T07:32:39;4.88;;;1.80;;
78508;SDS011;67802;50.846;7.958;2023-04-28T07:35:05;2.75;;;1.48;;
78508;SDS011;67802;50.846;7.958;2023-04-28T07:37:30;3.47;;;1.38;;
78508;SDS011;67802;50.846;7.958;2023-04-28T07:39:56;5.55;;;1.70;;
78508;SDS011;67802;50.846;7.958;2023-04-28T07:42:21;5.80;;;1.60;;
78508;SDS011;67802;50.846;7.958;2023-04-28T07:44:46;6.47;;;1.50;;
78508;SDS011;67802;50.846;7.958;2023-04-28T07:47:12;4.70;;;1.90;;
78508;SDS011;67802;50.846;7.958;2023-04-28T07:49:37;3.75;;;1.60;;
78508;SDS011;67802;50.846;7.958;2023-04-28T07:52:02;8.77;;;1.70;;
78508;SDS011;67802;50.846;7.958;2023-04-28T07:54:28;14.20;;;2.20;;
78508;SDS011;67802;50.846;7.958;2023-04-28T07:56:54;4.03;;;1.35;;
78508;SDS011;67802;50.846;7.958;2023-04-28T07:59:22;8.23;;;1.85;;
78508;SDS011;67802;50.846;7.958;2023-04-28T08:01:47;3.92;;;1.48;;
78508;SDS011;67802;50.846;7.958;2023-04-28T08:04:12;4.95;;;1.50;;
78508;SDS011;67802;50.846;7.958;2023-04-28T08:06:38;5.45;;;1.48;;
78508;SDS011;67802;50.846;7.958;2023-04-28T08:09:04;4.40;;;1.60;;
78508;SDS011;67802;50.846;7.958;2023-04-28T08:11:30;5.45;;;1.48;;
78508;SDS011;67802;50.846;7.958;2023-04-28T08:13:55;3.78;;;1.50;;
78508;SDS011;67802;50.846;7.958;2023-04-28T08:16:25;7.32;;;1.52;;
78508;SDS011;67802;50.846;7.958;2023-04-28T08:18:51;3.35;;;1.50;;
78508;SDS011;67802;50.846;7.958;2023-04-28T08:21:16;3.38;;;1.50;;
78508;SDS011;67802;50.846;7.958;2023-04-28T08:23:42;4.53;;;1.33;;
78508;SDS011;67802;50.846;7.958;2023-04-28T08:26:07;3.80;;;1.50;;
78508;SDS011;67802;50.846;7.958;2023-04-28T08:28:32;4.35;;;1.60;;
78508;SDS011;67802;50.846;7.958;2023-04-28T08:30:58;4.53;;;1.70;;
78508;SDS011;67802;50.846;7.958;2023-04-28T08:33:23;3.67;;;1.60;;
78508;SDS011;67802;50.846;7.958;2023-04-28T08:35:49;4.10;;;1.70;;
78508;SDS011;67802;50.846;7.958;2023-04-28T08:38:15;4.95;;;1.45;;
78508;SDS011;67802;50.846;7.958;2023-04-28T08:40:42;5.63;;;1.63;;
78508;SDS011;67802;50.846;7.958;2023-04-28T08:43:07;4.13;;;1.45;;
78508;SDS011;67802;50.846;7.958;2023-04-28T08:45:38;4.38;;;1.60;;
78508;SDS011;67802;50.846;7.958;2023-04-28T08:48:09;4.85;;;1.50;;
78508;SDS011;67802;50.846;7.958;2023-04-28T08:50:47;3.80;;;1.55;;
78508;SDS011;67802;50.846;7.958;2023-04-28T08:53:25;3.75;;;1.73;;
78508;SDS011;67802;50.846;7.958;2023-04-28T08:58:21;3.58;;;1.50;;
78508;SDS011;67802;50.846;7.958;2023-04-28T09:00:47;3.15;;;1.30;;
78508;SDS011;67802;50.846;7.958;2023-04-28T09:03:13;4.07;;;1.48;;
78508;SDS011;67802;50.846;7.958;2023-04-28T09:05:39;3.35;;;1.35;;
78508;SDS011;67802;50.846;7.958;2023-04-28T09:08:04;2.75;;;1.25;;
78508;SDS011;67802;50.846;7.958;2023-04-28T09:10:29;3.13;;;1.30;;
78508;SDS011;67802;50.846;7.958;2023-04-28T09:12:55;3.13;;;1.33;;
78508;SDS011;67802;50.846;7.958;2023-04-28T09:15:24;2.95;;;1.35;;
78508;SDS011;67802;50.846;7.958;2023-04-28T09:17:51;3.80;;;1.38;;
78508;SDS011;67802;50.846;7.958;2023-04-28T09:20:27;3.50;;;1.50;;
78508;SDS011;67802;50.846;7.958;2023-04-28T09:22:54;3.13;;;1.50;;
78508;SDS011;67802;50.846;7.958;2023-04-28T09:25:20;3.90;;;1.40;;
78508;SDS011;67802;50.846;7.958;2023-04-28T09:27:48;2.75;;;1.20;;
78508;SDS011;67802;50.846;7.958;2023-04-28T09:30:14;3.75;;;1.30;;
78508;SDS011;67802;50.846;7.958;2023-04-28T09:32:40;3.50;;;1.30;;
78508;SDS011;67802;50.846;7.958;2023-04-28T09:35:06;3.72;;;1.50;;
78508;SDS011;67802;50.846;7.958;2023-04-28T09:37:32;3.28;;;1.40;;
78508;SDS011;67802;50.846;7.958;2023-04-28T09:40:08;3.50;;;1.30;;
78508;SDS011;67802;50.846;7.958;2023-04-28T09:42:35;4.25;;;1.38;;
78508;SDS011;67802;50.846;7.958;2023-04-28T09:45:08;2.92;;;1.33;;
78508;SDS011;67802;50.846;7.958;2023-04-28T09:50:05;2.95;;;1.20;;
78508;SDS011;67802;50.846;7.958;2023-04-28T09:52:33;2.83;;;1.35;;
78508;SDS011;67802;50.846;7.958;2023-04-28T09:55:03;3.65;;;1.55;;
78508;SDS011;67802;50.846;7.958;2023-04-28T09:57:31;2.50;;;1.23;;
78508;SDS011;67802;50.846;7.958;2023-04-28T09:59:57;2.50;;;1.20;;
78508;SDS011;67802;50.846;7.958;2023-04-28T10:02:23;3.17;;;1.50;;
78508;SDS011;67802;50.846;7.958;2023-04-28T10:04:50;2.92;;;1.40;;
78508;SDS011;67802;50.846;7.958;2023-04-28T10:07:16;2.58;;;1.25;;
78508;SDS011;67802;50.846;7.958;2023-04-28T10:09:44;3.15;;;1.35;;
78508;SDS011;67802;50.846;7.958;2023-04-28T10:12:18;3.05;;;1.25;;
78508;SDS011;67802;50.846;7.958;2023-04-28T10:14:45;3.30;;;1.30;;
78508;SDS011;67802;50.846;7.958;2023-04-28T10:17:14;3.72;;;1.35;;
78508;SDS011;67802;50.846;7.958;2023-04-28T10:19:40;2.95;;;1.20;;
78508;SDS011;67802;50.846;7.958;2023-04-28T10:22:23;3.63;;;1.45;;
78508;SDS011;67802;50.846;7.958;2023-04-28T10:27:36;3.30;;;1.40;;
78508;SDS011;67802;50.846;7.958;2023-04-28T10:30:13;3.90;;;1.50;;
78508;SDS011;67802;50.846;7.958;2023-04-28T10:32:46;2.55;;;1.20;;
78508;SDS011;67802;50.846;7.958;2023-04-28T10:38:03;3.63;;;1.50;;
78508;SDS011;67802;50.846;7.958;2023-04-28T10:40:42;2.40;;;1.20;;
78508;SDS011;67802;50.846;7.958;2023-04-28T10:43:12;4.22;;;1.50;;
78508;SDS011;67802;50.846;7.958;2023-04-28T10:58:34;2.78;;;1.30;;
78508;SDS011;67802;50.846;7.958;2023-04-28T11:03:48;2.97;;;1.20;;
78508;SDS011;67802;50.846;7.958;2023-04-28T11:06:27;2.42;;;1.30;;
78508;SDS011;67802;50.846;7.958;2023-04-28T11:11:28;3.83;;;1.20;;
78508;SDS011;67802;50.846;7.958;2023-04-28T11:14:29;2.63;;;1.30;;
78508;SDS011;67802;50.846;7.958;2023-04-28T11:16:56;3.33;;;1.50;;
78508;SDS011;67802;50.846;7.958;2023-04-28T11:19:26;3.03;;;1.27;;
78508;SDS011;67802;50.846;7.958;2023-04-28T11:21:53;3.33;;;1.30;;
78508;SDS011;67802;50.846;7.958;2023-04-28T11:24:20;2.15;;;1.20;;
78508;SDS011;67802;50.846;7.958;2023-04-28T11:26:46;2.90;;;1.40;;
78508;SDS011;67802;50.846;7.958;2023-04-28T11:29:12;2.30;;;1.13;;
78508;SDS011;67802;50.846;7.958;2023-04-28T11:31:39;3.22;;;1.27;;
78508;SDS011;67802;50.846;7.958;2023-04-28T11:34:08;2.58;;;1.27;;
78508;SDS011;67802;50.846;7.958;2023-04-28T11:36:41;2.63;;;1.30;;
78508;SDS011;67802;50.846;7.958;2023-04-28T11:39:09;2.95;;;1.48;;
78508;SDS011;67802;50.846;7.958;2023-04-28T11:41:36;2.90;;;1.30;;
78508;SDS011;67802;50.846;7.958;2023-04-28T11:44:09;2.65;;;1.30;;
78508;SDS011;67802;50.846;7.958;2023-04-28T11:46:51;3.33;;;1.30;;
78508;SDS011;67802;50.846;7.958;2023-04-28T11:51:57;2.88;;;1.25;;
78508;SDS011;67802;50.846;7.958;2023-04-28T11:54:28;2.30;;;1.15;;
78508;SDS011;67802;50.846;7.958;2023-04-28T11:56:54;2.88;;;1.30;;
78508;SDS011;67802;50.846;7.958;2023-04-28T11:59:27;2.88;;;1.30;;
78508;SDS011;67802;50.846;7.958;2023-04-28T12:01:55;3.40;;;1.33;;
78508;SDS011;67802;50.846;7.958;2023-04-28T12:07:15;2.47;;;1.20;;
78508;SDS011;67802;50.846;7.958;2023-04-28T12:12:13;2.92;;;1.23;;
78508;SDS011;67802;50.846;7.958;2023-04-28T12:14:57;2.10;;;1.15;;
78508;SDS011;67802;50.846;7.958;2023-04-28T12:17:33;2.45;;;1.20;;
78508;SDS011;67802;50.846;7.958;2023-04-28T12:20:01;2.47;;;1.23;;
78508;SDS011;67802;50.846;7.958;2023-04-28T12:22:28;1.85;;;1.10;;
78508;SDS011;67802;50.846;7.958;2023-04-28T12:25:04;3.05;;;1.30;;
78508;SDS011;67802;50.846;7.958;2023-04-28T12:27:30;2.20;;;1.17;;
78508;SDS011;67802;50.846;7.958;2023-04-28T12:29:56;2.50;;;1.20;;
78508;SDS011;67802;50.846;7.958;2023-04-28T12:32:36;2.67;;;1.10;;
78508;SDS011;67802;50.846;7.958;2023-04-28T12:35:03;3.08;;;1.30;;
78508;SDS011;67802;50.846;7.958;2023-04-28T12:37:30;2.60;;;1.13;;
78508;SDS011;67802;50.846;7.958;2023-04-28T12:39:55;1.92;;;1.08;;
78508;SDS011;67802;50.846;7.958;2023-04-28T12:42:21;2.22;;;1.13;;
78508;SDS011;67802;50.846;7.958;2023-04-28T12:44:47;1.67;;;1.02;;
78508;SDS011;67802;50.846;7.958;2023-04-28T12:47:14;1.48;;;0.93;;
78508;SDS011;67802;50.846;7.958;2023-04-28T12:49:39;2.40;;;1.10;;
78508;SDS011;67802;50.846;7.958;2023-04-28T12:52:05;2.42;;;1.02;;
78508;SDS011;67802;50.846;7.958;2023-04-28T12:54:31;2.75;;;1.27;;
78508;SDS011;67802;50.846;7.958;2023-04-28T12:56:57;2.60;;;1.10;;
78508;SDS011;67802;50.846;7.958;2023-04-28T12:59:22;2.08;;;1.10;;
78508;SDS011;67802;50.846;7.958;2023-04-28T13:01:48;2.80;;;1.10;;
78508;SDS011;67802;50.846;7.958;2023-04-28T13:04:13;2.42;;;1.10;;
78508;SDS011;67802;50.846;7.958;2023-04-28T13:06:39;2.03;;;0.98;;
78508;SDS011;67802;50.846;7.958;2023-04-28T13:09:10;3.53;;;1.30;;
78508;SDS011;67802;50.846;7.958;2023-04-28T13:11:36;2.58;;;1.17;;
78508;SDS011;67802;50.846;7.958;2023-04-28T13:14:02;2.63;;;0.90;;
78508;SDS011;67802;50.846;7.958;2023-04-28T13:16:27;2.83;;;1.30;;
78508;SDS011;67802;50.846;7.958;2023-04-28T13:18:54;2.78;;;1.10;;
78508;SDS011;67802;50.846;7.958;2023-04-28T13:21:23;4.22;;;1.13;;
78508;SDS011;67802;50.846;7.958;2023-04-28T13:23:50;2.80;;;1.20;;
78508;SDS011;67802;50.846;7.958;2023-04-28T13:26:16;3.20;;;1.30;;
78508;SDS011;67802;50.846;7.958;2023-04-28T13:28:44;2.08;;;1.10;;
78508;SDS011;67802;50.846;7.958;2023-04-28T13:31:10;2.05;;;1.05;;
78508;SDS011;67802;50.846;7.958;2023-04-28T13:33:36;2.35;;;1.10;;
78508;SDS011;67802;50.846;7.958;2023-04-28T13:36:01;2.27;;;1.03;;
78508;SDS011;67802;50.846;7.958;2023-04-28T13:38:27;3.22;;;1.00;;
78508;SDS011;67802;50.846;7.958;2023-04-28T13:40:52;2.08;;;1.10;;
78508;SDS011;67802;50.846;7.958;2023-04-28T13:43:17;2.78;;;1.30;;
78508;SDS011;67802;50.846;7.958;2023-04-28T13:45:43;2.97;;;1.20;;
78508;SDS011;67802;50.846;7.958;2023-04-28T13:48:08;2.20;;;1.02;;
78508;SDS011;67802;50.846;7.958;2023-04-28T13:50:34;2.03;;;1.02;;
78508;SDS011;67802;50.846;7.958;2023-04-28T13:52:59;2.28;;;1.10;;
78508;SDS011;67802;50.846;7.958;2023-04-28T13:55:24;2.60;;;1.10;;
78508;SDS011;67802;50.846;7.958;2023-04-28T13:57:52;1.85;;;1.02;;
78508;SDS011;67802;50.846;7.958;2023-04-28T14:00:18;4.05;;;1.23;;
78508;SDS011;67802;50.846;7.958;2023-04-28T14:02:44;3.60;;;1.20;;
78508;SDS011;67802;50.846;7.958;2023-04-28T14:05:10;2.47;;;1.20;;
78508;SDS011;67802;50.846;7.958;2023-04-28T14:07:35;3.20;;;1.20;;
78508;SDS011;67802;50.846;7.958;2023-04-28T14:10:02;4.20;;;1.23;;
78508;SDS011;67802;50.846;7.958;2023-04-28T14:12:28;2.38;;;1.20;;
78508;SDS011;67802;50.846;7.958;2023-04-28T14:14:53;3.17;;;1.10;;
78508;SDS011;67802;50.846;7.958;2023-04-28T14:17:19;3.27;;;1.30;;
78508;SDS011;67802;50.846;7.958;2023-04-28T14:19:44;3.17;;;1.20;;
78508;SDS011;67802;50.846;7.958;2023-04-28T14:22:10;3.28;;;1.13;;
78508;SDS011;67802;50.846;7.958;2023-04-28T14:24:36;2.38;;;1.23;;
78508;SDS011;67802;50.846;7.958;2023-04-28T14:27:01;2.22;;;1.10;;
78508;SDS011;67802;50.846;7.958;2023-04-28T14:29:27;2.53;;;1.20;;
78508;SDS011;67802;50.846;7.958;2023-04-28T14:31:52;4.80;;;1.50;;
78508;SDS011;67802;50.846;7.958;2023-04-28T14:34:17;3.53;;;1.20;;
78508;SDS011;67802;50.846;7.958;2023-04-28T14:36:43;2.92;;;1.30;;
78508;SDS011;67802;50.846;7.958;2023-04-28T14:39:08;4.82;;;1.20;;
78508;SDS011;67802;50.846;7.958;2023-04-28T14:41:33;1.60;;;1.07;;
78508;SDS011;67802;50.846;7.958;2023-04-28T14:43:58;3.00;;;1.20;;
78508;SDS011;67802;50.846;7.958;2023-04-28T14:49:46;4.55;;;1.30;;
78508;SDS011;67802;50.846;7.958;2023-04-28T14:52:12;2.63;;;1.20;;
78508;SDS011;67802;50.846;7.958;2023-04-28T14:54:37;3.20;;;1.23;;
78508;SDS011;67802;50.846;7.958;2023-04-28T14:57:03;3.40;;;1.60;;
78508;SDS011;67802;50.846;7.958;2023-04-28T14:59:28;2.95;;;1.38;;
78508;SDS011;67802;50.846;7.958;2023-04-28T15:01:54;3.65;;;1.35;;
78508;SDS011;67802;50.846;7.958;2023-04-28T15:04:20;2.60;;;1.10;;
78508;SDS011;67802;50.846;7.958;2023-04-28T15:06:52;4.13;;;1.17;;
78508;SDS011;67802;50.846;7.958;2023-04-28T15:09:17;1.67;;;1.00;;
78508;SDS011;67802;50.846;7.958;2023-04-28T15:11:43;3.33;;;1.40;;
78508;SDS011;67802;50.846;7.958;2023-04-28T15:14:08;2.63;;;1.20;;
78508;SDS011;67802;50.846;7.958;2023-04-28T15:16:33;2.38;;;1.15;;
78508;SDS011;67802;50.846;7.958;2023-04-28T15:18:59;3.17;;;1.67;;
78508;SDS011;67802;50.846;7.958;2023-04-28T15:21:24;3.65;;;1.40;;
78508;SDS011;67802;50.846;7.958;2023-04-28T15:23:50;2.25;;;1.10;;